sensor_id;sensor_type;location;lat;lon;timestamp;pressure;altitude;pressure_sealevel;temperature;humidity
10470;BME280;5282;47.052;15.458;2024-01-06T00:00:32;96286.66;;;4.71;100.00
10470;BME280;5282;47.052;15.458;2024-01-06T00:03:12;96286.16;;;4.67;100.00
10470;BME280;5282;47.052;15.458;2024-01-06T00:05:40;96281.81;;;4.74;100.00
10470;BME280;5282;47.052;15.458;2024-01-06T00:08:07;96283.84;;;4.81;100.00
10470;BME280;5282;47.052;15.458;2024-01-06T00:10:34;96291.84;;;4.81;100.00
10470;BME280;5282;47.052;15.458;2024-01-06T00:13:01;96280.03;;;4.83;100.00
10470;BME280;5282;47.052;15.458;2024-01-06T00:15:29;96278.66;;;4.79;100.00
10470;BME280;5282;47.052;15.458;2024-01-06T00:17:56;96279.34;;;4.81;100.00
10470;BME280;5282;47.052;15.458;2024-01-06T00:20:23;96279.72;;;4.86;100.00
10470;BME280;5282;47.052;15.458;2024-01-06T00:22:50;96286.03;;;4.85;100.00
10470;BME280;5282;47.052;15.458;2024-01-06T00:25:17;96281.81;;;4.74;100.00
10470;BME280;5282;47.052;15.458;2024-01-06T00:27:44;96274.69;;;4.75;100.00
10470;BME280;5282;47.052;15.458;2024-01-06T00:30:11;96285.69;;;4.80;100.00
10470;BME280;5282;47.052;15.458;2024-01-06T00:32:39;96286.84;;;4.86;100.00
10470;BME280;5282;47.052;15.458;2024-01-06T00:35:07;96285.72;;;4.88;100.00
10470;BME280;5282;47.052;15.458;2024-01-06T00:37:34;96285.03;;;4.86;100.00
10470;BME280;5282;47.052;15.458;2024-01-06T00:40:01;96282.69;;;4.83;100.00
10470;BME280;5282;47.052;15.458;2024-01-06T00:42:31;96294.03;;;4.85;100.00
10470;BME280;5282;47.052;15.458;2024-01-06T00:44:58;96291.50;;;4.84;100.00
10470;BME280;5282;47.052;15.458;2024-01-06T00:47:24;96285.16;;;4.76;100.00
10470;BME280;5282;47.052;15.458;2024-01-06T00:49:53;96276.16;;;4.77;100.00
10470;BME280;5282;47.052;15.458;2024-01-06T00:52:19;96276.34;;;4.76;100.00
10470;BME280;5282;47.052;15.458;2024-01-06T00:54:46;96274.19;;;4.79;100.00
10470;BME280;5282;47.052;15.458;2024-01-06T00:57:14;96275.00;;;4.80;100.00
10470;BME280;5282;47.052;15.458;2024-01-06T00:59:41;96268.84;;;4.79;100.00
10470;BME280;5282;47.052;15.458;2024-01-06T01:02:07;96267.38;;;4.85;100.00
10470;BME280;5282;47.052;15.458;2024-01-06T01:04:34;96265.34;;;4.79;100.00
10470;BME280;5282;47.052;15.458;2024-01-06T01:07:03;96260.50;;;4.74;100.00
10470;BME280;5282;47.052;15.458;2024-01-06T01:09:30;96261.53;;;4.82;100.00
10470;BME280;5282;47.052;15.458;2024-01-06T01:11:57;96252.88;;;4.88;100.00
10470;BME280;5282;47.052;15.458;2024-01-06T01:14:24;96247.34;;;4.89;100.00
10470;BME280;5282;47.052;15.458;2024-01-06T01:16:51;96257.69;;;4.92;100.00
10470;BME280;5282;47.052;15.458;2024-01-06T01:19:18;96259.19;;;4.95;100.00
10470;BME280;5282;47.052;15.458;2024-01-06T01:21:45;96250.19;;;4.96;100.00
10470;BME280;5282;47.052;15.458;2024-01-06T01:24:13;96250.06;;;4.98;100.00
10470;BME280;5282;47.052;15.458;2024-01-06T01:26:40;96257.19;;;4.89;100.00
10470;BME280;5282;47.052;15.458;2024-01-06T01:29:07;96255.84;;;4.76;100.00
10470;BME280;5282;47.052;15.458;2024-01-06T01:31:34;96250.69;;;4.75;100.00
10470;BME280;5282;47.052;15.458;2024-01-06T01:34:01;96237.34;;;4.83;100.00
10470;BME280;5282;47.052;15.458;2024-01-06T01:36:27;96240.69;;;4.85;100.00
10470;BME280;5282;47.052;15.458;2024-01-06T01:38:54;96234.88;;;4.90;100.00
10470;BME280;5282;47.052;15.458;2024-01-06T01:41:22;96233.03;;;4.90;100.00
10470;BME280;5282;47.052;15.458;2024-01-06T01:43:49;96229.53;;;4.82;100.00
10470;BME280;5282;47.052;15.458;2024-01-06T01:46:25;96230.84;;;4.86;100.00
10470;BME280;5282;47.052;15.458;2024-01-06T01:48:54;96225.19;;;4.97;100.00
10470;BME280;5282;47.052;15.458;2024-01-06T01:51:21;96224.19;;;4.98;100.00
10470;BME280;5282;47.052;15.458;2024-01-06T01:53:49;96220.03;;;4.87;100.00
10470;BME280;5282;47.052;15.458;2024-01-06T01:56:16;96221.72;;;4.88;100.00
10470;BME280;5282;47.052;15.458;2024-01-06T01:58:45;96208.69;;;4.93;100.00
10470;BME280;5282;47.052;15.458;2024-01-06T02:01:12;96203.19;;;4.87;100.00
10470;BME280;5282;47.052;15.458;2024-01-06T02:03:40;96192.03;;;4.91;100.00
10470;BME280;5282;47.052;15.458;2024-01-06T02:06:09;96200.38;;;4.97;100.00
10470;BME280;5282;47.052;15.458;2024-01-06T02:08:37;96187.53;;;5.00;100.00
10470;BME280;5282;47.052;15.458;2024-01-06T02:11:04;96193.88;;;4.99;100.00
10470;BME280;5282;47.052;15.458;2024-01-06T02:13:33;96189.53;;;4.98;100.00
10470;BME280;5282;47.052;15.458;2024-01-06T02:16:02;96195.03;;;4.97;100.00
10470;BME280;5282;47.052;15.458;2024-01-06T02:18:30;96185.03;;;4.99;100.00
10470;BME280;5282;47.052;15.458;2024-01-06T02:20:59;96184.88;;;5.00;100.00
10470;BME280;5282;47.052;15.458;2024-01-06T02:23:27;96189.84;;;4.95;100.00
10470;BME280;5282;47.052;15.458;2024-01-06T02:25:55;96190.19;;;4.92;100.00
10470;BME280;5282;47.052;15.458;2024-01-06T02:28:22;96187.19;;;4.87;100.00
10470;BME280;5282;47.052;15.458;2024-01-06T02:30:50;96176.88;;;4.92;100.00
10470;BME280;5282;47.052;15.458;2024-01-06T02:33:17;96176.69;;;4.93;100.00
10470;BME280;5282;47.052;15.458;2024-01-06T02:35:45;96174.69;;;4.96;100.00
10470;BME280;5282;47.052;15.458;2024-01-06T02:38:12;96166.19;;;5.00;100.00
10470;BME280;5282;47.052;15.458;2024-01-06T02:40:40;96174.88;;;5.02;100.00
10470;BME280;5282;47.052;15.458;2024-01-06T02:43:08;96176.69;;;5.02;100.00
10470;BME280;5282;47.052;15.458;2024-01-06T02:45:35;96172.03;;;4.96;100.00
10470;BME280;5282;47.052;15.458;2024-01-06T02:48:03;96170.34;;;4.94;100.00
10470;BME280;5282;47.052;15.458;2024-01-06T02:50:30;96162.03;;;4.98;100.00
10470;BME280;5282;47.052;15.458;2024-01-06T02:52:57;96164.34;;;5.01;100.00
10470;BME280;5282;47.052;15.458;2024-01-06T02:55:24;96164.34;;;4.92;100.00
10470;BME280;5282;47.052;15.458;2024-01-06T02:57:52;96162.69;;;4.83;100.00
10470;BME280;5282;47.052;15.458;2024-01-06T03:00:19;96166.66;;;4.79;100.00
10470;BME280;5282;47.052;15.458;2024-01-06T03:02:46;96162.34;;;4.86;100.00
10470;BME280;5282;47.052;15.458;2024-01-06T03:05:13;96163.19;;;4.87;100.00
10470;BME280;5282;47.052;15.458;2024-01-06T03:07:40;96169.84;;;4.83;100.00
10470;BME280;5282;47.052;15.458;2024-01-06T03:10:07;96169.84;;;4.91;100.00
10470;BME280;5282;47.052;15.458;2024-01-06T03:12:35;96168.00;;;4.91;100.00
10470;BME280;5282;47.052;15.458;2024-01-06T03:15:04;96174.03;;;4.93;100.00
10470;BME280;5282;47.052;15.458;2024-01-06T03:17:32;96178.69;;;4.91;100.00
10470;BME280;5282;47.052;15.458;2024-01-06T03:19:59;96171.34;;;4.85;100.00
10470;BME280;5282;47.052;15.458;2024-01-06T03:22:31;96172.66;;;4.89;100.00
10470;BME280;5282;47.052;15.458;2024-01-06T03:24:59;96171.53;;;4.92;100.00
10470;BME280;5282;47.052;15.458;2024-01-06T03:27:26;96169.34;;;4.79;100.00
10470;BME280;5282;47.052;15.458;2024-01-06T03:29:53;96169.69;;;4.84;100.00
10470;BME280;5282;47.052;15.458;2024-01-06T03:32:21;96171.84;;;4.89;100.00
10470;BME280;5282;47.052;15.458;2024-01-06T03:34:50;96166.03;;;4.85;100.00
10470;BME280;5282;47.052;15.458;2024-01-06T03:37:17;96164.66;;;4.81;100.00
10470;BME280;5282;47.052;15.458;2024-01-06T03:39:44;96162.00;;;4.81;100.00
10470;BME280;5282;47.052;15.458;2024-01-06T03:42:10;96170.19;;;4.79;100.00
10470;BME280;5282;47.052;15.458;2024-01-06T03:44:37;96176.00;;;4.83;100.00
10470;BME280;5282;47.052;15.458;2024-01-06T03:47:04;96178.34;;;4.86;100.00
10470;BME280;5282;47.052;15.458;2024-01-06T03:49:33;96169.84;;;4.83;100.00
10470;BME280;5282;47.052;15.458;2024-01-06T03:52:00;96171.34;;;4.85;100.00
10470;BME280;5282;47.052;15.458;2024-01-06T03:54:31;96172.66;;;4.89;100.00
10470;BME280;5282;47.052;15.458;2024-01-06T03:56:57;96171.03;;;4.88;100.00
10470;BME280;5282;47.052;15.458;2024-01-06T03:59:24;96177.50;;;4.86;100.00
10470;BME280;5282;47.052;15.458;2024-01-06T04:01:52;96169.69;;;4.84;100.00
10470;BME280;5282;47.052;15.458;2024-01-06T04:04:19;96180.34;;;4.84;100.00
10470;BME280;5282;47.052;15.458;2024-01-06T04:06:48;96177.69;;;4.84;100.00
10470;BME280;5282;47.052;15.458;2024-01-06T04:09:15;96183.50;;;4.71;100.00
10470;BME280;5282;47.052;15.458;2024-01-06T04:11:42;96187.97;;;4.62;100.00
10470;BME280;5282;47.052;15.458;2024-01-06T04:14:08;96190.66;;;4.62;100.00
10470;BME280;5282;47.052;15.458;2024-01-06T04:16:35;96181.16;;;4.60;100.00
10470;BME280;5282;47.052;15.458;2024-01-06T04:19:02;96183.31;;;4.65;100.00
10470;BME280;5282;47.052;15.458;2024-01-06T04:21:32;96179.50;;;4.67;100.00
10470;BME280;5282;47.052;15.458;2024-01-06T04:24:00;96179.66;;;4.66;100.00
10470;BME280;5282;47.052;15.458;2024-01-06T04:26:27;96177.47;;;4.61;100.00
10470;BME280;5282;47.052;15.458;2024-01-06T04:28:54;96174.66;;;4.54;100.00
10470;BME280;5282;47.052;15.458;2024-01-06T04:31:21;96169.28;;;4.46;100.00
10470;BME280;5282;47.052;15.458;2024-01-06T04:33:49;96171.44;;;4.42;100.00
10470;BME280;5282;47.052;15.458;2024-01-06T04:36:15;96172.78;;;4.46;100.00
10470;BME280;5282;47.052;15.458;2024-01-06T04:38:42;96177.13;;;4.47;100.00
10470;BME280;5282;47.052;15.458;2024-01-06T04:41:10;96181.13;;;4.52;100.00
10470;BME280;5282;47.052;15.458;2024-01-06T04:43:37;96184.94;;;4.49;100.00
10470;BME280;5282;47.052;15.458;2024-01-06T04:46:04;96183.09;;;4.50;100.00
10470;BME280;5282;47.052;15.458;2024-01-06T04:48:31;96191.16;;;4.58;100.00
10470;BME280;5282;47.052;15.458;2024-01-06T04:50:58;96186.13;;;4.55;100.00
10470;BME280;5282;47.052;15.458;2024-01-06T04:53:24;96184.78;;;4.51;100.00
10470;BME280;5282;47.052;15.458;2024-01-06T04:55:51;96196.78;;;4.46;100.00
10470;BME280;5282;47.052;15.458;2024-01-06T04:58:19;96190.59;;;4.46;100.00
10470;BME280;5282;47.052;15.458;2024-01-06T05:00:46;96197.91;;;4.44;100.00
10470;BME280;5282;47.052;15.458;2024-01-06T05:03:14;96184.94;;;4.49;100.00
10470;BME280;5282;47.052;15.458;2024-01-06T05:05:41;96202.41;;;4.43;100.00
10470;BME280;5282;47.052;15.458;2024-01-06T05:08:08;96197.56;;;4.39;100.00
10470;BME280;5282;47.052;15.458;2024-01-06T05:10:34;96192.06;;;4.32;100.00
10470;BME280;5282;47.052;15.458;2024-01-06T05:13:01;96194.25;;;4.37;100.00
10470;BME280;5282;47.052;15.458;2024-01-06T05:15:29;96191.28;;;4.48;100.00
10470;BME280;5282;47.052;15.458;2024-01-06T05:17:56;96197.44;;;4.48;100.00
10470;BME280;5282;47.052;15.458;2024-01-06T05:20:23;96199.59;;;4.45;100.00
10470;BME280;5282;47.052;15.458;2024-01-06T05:22:50;96203.59;;;4.41;100.00
10470;BME280;5282;47.052;15.458;2024-01-06T05:25:17;96192.25;;;4.39;100.00
10470;BME280;5282;47.052;15.458;2024-01-06T05:27:44;96190.91;;;4.35;100.00
10470;BME280;5282;47.052;15.458;2024-01-06T05:30:11;96198.38;;;4.31;100.00
10470;BME280;5282;47.052;15.458;2024-01-06T05:32:39;96200.38;;;4.29;100.00
10470;BME280;5282;47.052;15.458;2024-01-06T05:35:07;96200.72;;;4.34;100.00
10470;BME280;5282;47.052;15.458;2024-01-06T05:37:33;96202.91;;;4.39;100.00
10470;BME280;5282;47.052;15.458;2024-01-06T05:40:00;96205.91;;;4.44;100.00
10470;BME280;5282;47.052;15.458;2024-01-06T05:42:29;96211.91;;;4.46;100.00
10470;BME280;5282;47.052;15.458;2024-01-06T05:44:56;96207.56;;;4.45;100.00
10470;BME280;5282;47.052;15.458;2024-01-06T05:47:23;96210.53;;;4.33;100.00
10470;BME280;5282;47.052;15.458;2024-01-06T05:49:51;96200.84;;;4.24;100.00
10470;BME280;5282;47.052;15.458;2024-01-06T05:52:18;96204.38;;;4.33;100.00
10470;BME280;5282;47.052;15.458;2024-01-06T05:54:45;96208.56;;;4.36;100.00
10470;BME280;5282;47.052;15.458;2024-01-06T05:57:11;96206.25;;;4.41;100.00
10470;BME280;5282;47.052;15.458;2024-01-06T05:59:39;96204.72;;;4.38;100.00
10470;BME280;5282;47.052;15.458;2024-01-06T06:02:06;96206.88;;;4.35;100.00
10470;BME280;5282;47.052;15.458;2024-01-06T06:04:33;96204.41;;;4.41;100.00
10470;BME280;5282;47.052;15.458;2024-01-06T06:07:01;96198.94;;;4.43;100.00
10470;BME280;5282;47.052;15.458;2024-01-06T06:09:28;96205.91;;;4.44;100.00
10470;BME280;5282;47.052;15.458;2024-01-06T06:11:55;96203.09;;;4.45;100.00
10470;BME280;5282;47.052;15.458;2024-01-06T06:14:22;96207.56;;;4.45;100.00
10470;BME280;5282;47.052;15.458;2024-01-06T06:16:49;96209.09;;;4.47;100.00
10470;BME280;5282;47.052;15.458;2024-01-06T06:19:16;96203.91;;;4.46;100.00
10470;BME280;5282;47.052;15.458;2024-01-06T06:21:43;96204.78;;;4.46;100.00
10470;BME280;5282;47.052;15.458;2024-01-06T06:24:12;96207.56;;;4.45;100.00
10470;BME280;5282;47.052;15.458;2024-01-06T06:26:39;96208.91;;;4.41;100.00
10470;BME280;5282;47.052;15.458;2024-01-06T06:29:05;96211.72;;;4.39;100.00
10470;BME280;5282;47.052;15.458;2024-01-06T06:31:32;96208.56;;;4.44;100.00
10470;BME280;5282;47.052;15.458;2024-01-06T06:33:59;96208.56;;;4.44;100.00
10470;BME280;5282;47.052;15.458;2024-01-06T06:36:26;96211.91;;;4.46;100.00
10470;BME280;5282;47.052;15.458;2024-01-06T06:38:53;96212.78;;;4.46;100.00
10470;BME280;5282;47.052;15.458;2024-01-06T06:41:24;96211.25;;;4.44;100.00
10470;BME280;5282;47.052;15.458;2024-01-06T06:43:51;96212.56;;;4.40;100.00
10470;BME280;5282;47.052;15.458;2024-01-06T06:46:18;96216.91;;;4.41;100.00
10470;BME280;5282;47.052;15.458;2024-01-06T06:48:45;96205.25;;;4.42;100.00
10470;BME280;5282;47.052;15.458;2024-01-06T06:51:12;96206.59;;;4.46;100.00
10470;BME280;5282;47.052;15.458;2024-01-06T06:53:39;96202.94;;;4.47;100.00
10470;BME280;5282;47.052;15.458;2024-01-06T06:56:06;96197.25;;;4.42;100.00
10470;BME280;5282;47.052;15.458;2024-01-06T06:58:34;96199.41;;;4.38;100.00
10470;BME280;5282;47.052;15.458;2024-01-06T07:01:01;96199.94;;;4.42;100.00
10470;BME280;5282;47.052;15.458;2024-01-06T07:03:28;96207.75;;;4.43;100.00
10470;BME280;5282;47.052;15.458;2024-01-06T07:05:55;96211.25;;;4.44;100.00
10470;BME280;5282;47.052;15.458;2024-01-06T07:08:22;96206.94;;;4.43;100.00
10470;BME280;5282;47.052;15.458;2024-01-06T07:10:49;96206.94;;;4.43;100.00
10470;BME280;5282;47.052;15.458;2024-01-06T07:13:15;96214.59;;;4.46;100.00
10470;BME280;5282;47.052;15.458;2024-01-06T07:15:44;96217.94;;;4.48;100.00
10470;BME280;5282;47.052;15.458;2024-01-06T07:18:11;96220.59;;;4.48;100.00
10470;BME280;5282;47.052;15.458;2024-01-06T07:20:38;96225.09;;;4.47;100.00
10470;BME280;5282;47.052;15.458;2024-01-06T07:23:05;96219.59;;;4.49;100.00
10470;BME280;5282;47.052;15.458;2024-01-06T07:25:32;96218.78;;;4.48;100.00
10470;BME280;5282;47.052;15.458;2024-01-06T07:27:59;96221.94;;;4.52;100.00
10470;BME280;5282;47.052;15.458;2024-01-06T07:30:26;96228.28;;;4.51;100.00
10470;BME280;5282;47.052;15.458;2024-01-06T07:32:54;96225.75;;;4.50;100.00
10470;BME280;5282;47.052;15.458;2024-01-06T07:35:21;96225.25;;;4.46;100.00
10470;BME280;5282;47.052;15.458;2024-01-06T07:37:47;96217.09;;;4.47;100.00
10470;BME280;5282;47.052;15.458;2024-01-06T07:40:14;96225.91;;;4.48;100.00
10470;BME280;5282;47.052;15.458;2024-01-06T07:42:42;96221.94;;;4.52;100.00
10470;BME280;5282;47.052;15.458;2024-01-06T07:45:09;96220.09;;;4.53;100.00
10470;BME280;5282;47.052;15.458;2024-01-06T07:47:37;96214.94;;;4.51;100.00
10470;BME280;5282;47.052;15.458;2024-01-06T07:50:07;96218.41;;;4.43;100.00
10470;BME280;5282;47.052;15.458;2024-01-06T07:52:34;96216.38;;;4.37;100.00
10470;BME280;5282;47.052;15.458;2024-01-06T07:55:00;96215.75;;;4.43;100.00
10470;BME280;5282;47.052;15.458;2024-01-06T07:57:28;96218.25;;;4.45;100.00
10470;BME280;5282;47.052;15.458;2024-01-06T07:59:54;96223.75;;;4.52;100.00
10470;BME280;5282;47.052;15.458;2024-01-06T08:02:21;96219.97;;;4.54;100.00
10470;BME280;5282;47.052;15.458;2024-01-06T08:04:48;96229.47;;;4.57;100.00
10470;BME280;5282;47.052;15.458;2024-01-06T08:07:16;96222.63;;;4.54;100.00
10470;BME280;5282;47.052;15.458;2024-01-06T08:09:43;96220.59;;;4.56;100.00
10470;BME280;5282;47.052;15.458;2024-01-06T08:12:10;96216.94;;;4.57;100.00
10470;BME280;5282;47.052;15.458;2024-01-06T08:14:37;96225.31;;;4.62;100.00
10470;BME280;5282;47.052;15.458;2024-01-06T08:17:04;96222.31;;;4.66;100.00
10470;BME280;5282;47.052;15.458;2024-01-06T08:19:31;96224.66;;;4.69;100.00
10470;BME280;5282;47.052;15.458;2024-01-06T08:21:59;96215.81;;;4.68;100.00
10470;BME280;5282;47.052;15.458;2024-01-06T08:24:27;96216.50;;;4.70;100.00
10470;BME280;5282;47.052;15.458;2024-01-06T08:26:54;96222.66;;;4.71;100.00
10470;BME280;5282;47.052;15.458;2024-01-06T08:29:21;96223.50;;;4.71;100.00
10470;BME280;5282;47.052;15.458;2024-01-06T08:31:48;96218.31;;;4.70;100.00
10470;BME280;5282;47.052;15.458;2024-01-06T08:34:17;96229.47;;;4.65;100.00
10470;BME280;5282;47.052;15.458;2024-01-06T08:36:44;96227.50;;;4.75;100.00
10470;BME280;5282;47.052;15.458;2024-01-06T08:39:12;96228.34;;;4.84;100.00
10470;BME280;5282;47.052;15.458;2024-01-06T08:41:40;96230.03;;;4.93;100.00
10470;BME280;5282;47.052;15.458;2024-01-06T08:44:07;96225.38;;;4.96;100.00
10470;BME280;5282;47.052;15.458;2024-01-06T08:46:34;96232.38;;;4.97;100.00
10470;BME280;5282;47.052;15.458;2024-01-06T08:49:01;96226.72;;;5.00;100.00
10470;BME280;5282;47.052;15.458;2024-01-06T08:51:28;96235.38;;;5.02;100.00
10470;BME280;5282;47.052;15.458;2024-01-06T08:53:56;96230.03;;;5.02;100.00
10470;BME280;5282;47.052;15.458;2024-01-06T08:56:23;96240.75;;;5.10;100.00
10470;BME280;5282;47.052;15.458;2024-01-06T08:58:51;96247.03;;;5.01;100.00
10470;BME280;5282;47.052;15.458;2024-01-06T09:01:18;96245.06;;;5.03;100.00
10470;BME280;5282;47.052;15.458;2024-01-06T09:03:44;96244.91;;;5.04;100.00
10470;BME280;5282;47.052;15.458;2024-01-06T09:06:11;96243.06;;;5.05;100.00
10470;BME280;5282;47.052;15.458;2024-01-06T09:08:39;96252.72;;;5.06;100.00
10470;BME280;5282;47.052;15.458;2024-01-06T09:11:05;96257.06;;;5.15;100.00
10470;BME280;5282;47.052;15.458;2024-01-06T09:13:32;96251.41;;;5.18;100.00
10470;BME280;5282;47.052;15.458;2024-01-06T09:16:01;96258.09;;;5.22;100.00
10470;BME280;5282;47.052;15.458;2024-01-06T09:18:27;96255.25;;;5.24;100.00
10470;BME280;5282;47.052;15.458;2024-01-06T09:20:54;96263.75;;;5.28;100.00
10470;BME280;5282;47.052;15.458;2024-01-06T09:23:22;96260.78;;;5.31;100.00
10470;BME280;5282;47.052;15.458;2024-01-06T09:25:49;96263.25;;;5.32;100.00
10470;BME280;5282;47.052;15.458;2024-01-06T09:28:17;96257.78;;;5.34;100.00
10470;BME280;5282;47.052;15.458;2024-01-06T09:30:44;96252.09;;;5.37;100.00
10470;BME280;5282;47.052;15.458;2024-01-06T09:33:12;96251.44;;;5.35;100.00
10470;BME280;5282;47.052;15.458;2024-01-06T09:35:41;96260.75;;;5.39;100.00
10470;BME280;5282;47.052;15.458;2024-01-06T09:38:09;96254.44;;;5.32;100.00
10470;BME280;5282;47.052;15.458;2024-01-06T09:40:42;96259.09;;;5.30;100.00
10470;BME280;5282;47.052;15.458;2024-01-06T09:43:09;96249.09;;;5.32;100.00
10470;BME280;5282;47.052;15.458;2024-01-06T09:45:37;96252.75;;;5.39;100.00
10470;BME280;5282;47.052;15.458;2024-01-06T09:48:10;96254.59;;;5.47;100.00
10470;BME280;5282;47.052;15.458;2024-01-06T09:50:40;96258.44;;;5.52;100.00
10470;BME280;5282;47.052;15.458;2024-01-06T09:53:09;96257.44;;;5.45;100.00
10470;BME280;5282;47.052;15.458;2024-01-06T09:55:38;96247.09;;;5.42;100.00
10470;BME280;5282;47.052;15.458;2024-01-06T09:58:05;96248.91;;;5.41;100.00
10470;BME280;5282;47.052;15.458;2024-01-06T10:00:32;96251.75;;;5.48;100.00
10470;BME280;5282;47.052;15.458;2024-01-06T10:02:59;96251.44;;;5.51;100.00
10470;BME280;5282;47.052;15.458;2024-01-06T10:05:26;96256.94;;;5.50;100.00
10470;BME280;5282;47.052;15.458;2024-01-06T10:07:54;96245.44;;;5.41;100.00
10470;BME280;5282;47.052;15.458;2024-01-06T10:10:22;96243.09;;;5.38;100.00
10470;BME280;5282;47.052;15.458;2024-01-06T10:12:53;96235.56;;;5.41;100.00
10470;BME280;5282;47.052;15.458;2024-01-06T10:15:20;96232.56;;;5.45;100.00
10470;BME280;5282;47.052;15.458;2024-01-06T10:17:47;96238.41;;;5.40;100.00
10470;BME280;5282;47.052;15.458;2024-01-06T10:20:14;96235.72;;;5.48;100.00
10470;BME280;5282;47.052;15.458;2024-01-06T10:22:43;96232.41;;;5.38;100.00
10470;BME280;5282;47.052;15.458;2024-01-06T10:25:11;96230.09;;;5.35;100.00
10470;BME280;5282;47.052;15.458;2024-01-06T10:27:39;96223.91;;;5.34;100.00
10470;BME280;5282;47.052;15.458;2024-01-06T10:30:08;96236.94;;;5.37;100.00
10470;BME280;5282;47.052;15.458;2024-01-06T10:32:36;96227.41;;;5.43;100.00
10470;BME280;5282;47.052;15.458;2024-01-06T10:35:03;96227.91;;;5.47;100.00
10470;BME280;5282;47.052;15.458;2024-01-06T10:37:34;96226.72;;;5.49;100.00
10470;BME280;5282;47.052;15.458;2024-01-06T10:40:07;96225.91;;;5.49;100.00
10470;BME280;5282;47.052;15.458;2024-01-06T10:42:36;96229.75;;;5.46;100.00
10470;BME280;5282;47.052;15.458;2024-01-06T10:45:07;96223.06;;;5.50;100.00
10470;BME280;5282;47.052;15.458;2024-01-06T10:47:35;96226.06;;;5.47;100.00
10470;BME280;5282;47.052;15.458;2024-01-06T10:50:02;96217.91;;;5.49;100.00
10470;BME280;5282;47.052;15.458;2024-01-06T10:52:30;96214.38;;;5.48;100.00
10470;BME280;5282;47.052;15.458;2024-01-06T10:54:58;96211.88;;;5.55;100.00
10470;BME280;5282;47.052;15.458;2024-01-06T10:57:25;96207.03;;;5.50;100.00
10470;BME280;5282;47.052;15.458;2024-01-06T10:59:57;96209.72;;;5.50;100.00
10470;BME280;5282;47.052;15.458;2024-01-06T11:02:25;96204.06;;;5.45;100.00
10470;BME280;5282;47.052;15.458;2024-01-06T11:04:54;96209.03;;;5.48;100.00
10470;BME280;5282;47.052;15.458;2024-01-06T11:07:21;96206.38;;;5.48;100.00
10470;BME280;5282;47.052;15.458;2024-01-06T11:09:51;96203.22;;;5.45;100.00
10470;BME280;5282;47.052;15.458;2024-01-06T11:12:19;96208.72;;;5.51;100.00
10470;BME280;5282;47.052;15.458;2024-01-06T11:14:46;96196.38;;;5.50;100.00
10470;BME280;5282;47.052;15.458;2024-01-06T11:17:50;96193.53;;;5.52;100.00
10470;BME280;5282;47.052;15.458;2024-01-06T11:20:19;96190.72;;;5.45;100.00
10470;BME280;5282;47.052;15.458;2024-01-06T11:22:47;96193.72;;;5.42;100.00
10470;BME280;5282;47.052;15.458;2024-01-06T11:25:14;96189.72;;;5.46;100.00
10470;BME280;5282;47.052;15.458;2024-01-06T11:27:42;96191.03;;;5.50;100.00
10470;BME280;5282;47.052;15.458;2024-01-06T11:30:20;96192.38;;;5.54;100.00
10470;BME280;5282;47.052;15.458;2024-01-06T11:32:48;96184.69;;;5.51;100.00
10470;BME280;5282;47.052;15.458;2024-01-06T11:35:15;96178.00;;;5.55;100.00
10470;BME280;5282;47.052;15.458;2024-01-06T11:37:54;96176.84;;;5.58;100.00
10470;BME280;5282;47.052;15.458;2024-01-06T11:40:31;96176.00;;;5.58;100.00
10470;BME280;5282;47.052;15.458;2024-01-06T11:43:01;96179.31;;;5.60;100.00
10470;BME280;5282;47.052;15.458;2024-01-06T11:45:29;96176.50;;;5.61;100.00
10470;BME280;5282;47.052;15.458;2024-01-06T11:47:58;96171.00;;;5.54;100.00
10470;BME280;5282;47.052;15.458;2024-01-06T11:50:28;96169.34;;;5.53;100.00
10470;BME280;5282;47.052;15.458;2024-01-06T11:52:55;96166.16;;;5.58;100.00
10470;BME280;5282;47.052;15.458;2024-01-06T11:55:22;96163.31;;;5.51;100.00
10470;BME280;5282;47.052;15.458;2024-01-06T11:57:49;96167.66;;;5.61;100.00
10470;BME280;5282;47.052;15.458;2024-01-06T12:00:17;96166.31;;;5.65;100.00
10470;BME280;5282;47.052;15.458;2024-01-06T12:02:44;96165.13;;;5.67;100.00
10470;BME280;5282;47.052;15.458;2024-01-06T12:05:17;96161.13;;;5.71;100.00
10470;BME280;5282;47.052;15.458;2024-01-06T12:07:53;96154.13;;;5.70;100.00
10470;BME280;5282;47.052;15.458;2024-01-06T12:10:20;96165.97;;;5.68;100.00
10470;BME280;5282;47.052;15.458;2024-01-06T12:12:58;96165.19;;;5.51;100.00
10470;BME280;5282;47.052;15.458;2024-01-06T12:15:25;96155.31;;;5.51;100.00
10470;BME280;5282;47.052;15.458;2024-01-06T12:17:52;96160.34;;;5.38;100.00
10470;BME280;5282;47.052;15.458;2024-01-06T12:20:21;96160.50;;;5.45;100.00
10470;BME280;5282;47.052;15.458;2024-01-06T12:22:48;96160.50;;;5.45;100.00
10470;BME280;5282;47.052;15.458;2024-01-06T12:25:15;96158.50;;;5.47;100.00
10470;BME280;5282;47.052;15.458;2024-01-06T12:27:42;96153.97;;;5.47;100.00
10470;BME280;5282;47.052;15.458;2024-01-06T12:30:13;96151.97;;;5.49;100.00
10470;BME280;5282;47.052;15.458;2024-01-06T12:32:41;96154.81;;;5.56;100.00
10470;BME280;5282;47.052;15.458;2024-01-06T12:35:09;96155.66;;;5.56;100.00
10470;BME280;5282;47.052;15.458;2024-01-06T12:37:37;96158.63;;;5.62;100.00
10470;BME280;5282;47.052;15.458;2024-01-06T12:40:05;96147.63;;;5.65;100.00
10470;BME280;5282;47.052;15.458;2024-01-06T12:42:32;96154.28;;;5.61;100.00
10470;BME280;5282;47.052;15.458;2024-01-06T12:44:59;96155.81;;;5.63;100.00
10470;BME280;5282;47.052;15.458;2024-01-06T12:47:25;96159.97;;;5.66;100.00
10470;BME280;5282;47.052;15.458;2024-01-06T12:49:52;96148.63;;;5.64;100.00
10470;BME280;5282;47.052;15.458;2024-01-06T12:52:19;96161.78;;;5.65;100.00
10470;BME280;5282;47.052;15.458;2024-01-06T12:54:48;96153.13;;;5.63;100.00
10470;BME280;5282;47.052;15.458;2024-01-06T12:57:16;96157.63;;;5.63;100.00
10470;BME280;5282;47.052;15.458;2024-01-06T12:59:43;96159.81;;;5.59;100.00
10470;BME280;5282;47.052;15.458;2024-01-06T13:02:09;96162.47;;;5.59;100.00